Time;durP1;ratioP1;P1;durP2;ratioP2;P2;SDS_P1;SDS_P2;PMS_P1;PMS_P2;Temp;Humidity;BMP_temperature;BMP_pressure;BME280_temperature;BME280_humidity;BME280_pressure;Samples;Min_cycle;Max_cycle;Signal;HPM_P1;HPM_P2
2022/06/22 00:00:00;;;;;;;15.65;9.57;;;12.70;99.90;;;;;;5022734;28;20443;-74
2022/06/22 00:02:30;;;;;;;15.27;10.05;;;12.70;99.90;;;;;;5009677;28;20474;-74
2022/06/22 00:05:03;;;;;;;14.27;10.23;;;12.80;99.90;;;;;;5008705;28;20061;-75
2022/06/22 00:07:29;;;;;;;15.20;9.85;;;12.90;99.90;;;;;;5017889;28;20044;-74
2022/06/22 00:10:23;;;;;;;12.27;9.68;;;12.90;99.90;;;;;;5021117;28;20055;-75
2022/06/22 00:12:54;;;;;;;13.70;10.02;;;12.90;99.90;;;;;;5001480;28;20053;-75
2022/06/22 00:15:46;;;;;;;14.77;10.75;;;12.90;99.90;;;;;;5022244;28;20052;-76
2022/06/22 00:18:40;;;;;;;13.07;9.52;;;12.90;99.90;;;;;;5020124;28;20141;-74
2022/06/22 00:21:33;;;;;;;12.70;9.07;;;12.90;99.90;;;;;;5019844;28;20916;-73
2022/06/22 00:24:23;;;;;;;12.65;8.50;;;12.90;99.90;;;;;;5037292;28;20033;-74
2022/06/22 00:27:07;;;;;;;15.07;9.88;;;12.90;99.90;;;;;;5025058;28;20087;-74
2022/06/22 00:29:36;;;;;;;12.52;8.90;;;12.80;99.90;;;;;;5031159;28;20044;-75
2022/06/22 00:32:26;;;;;;;14.63;9.63;;;12.80;99.90;;;;;;5025806;28;20038;-76
2022/06/22 00:34:52;;;;;;;12.57;9.85;;;12.80;99.90;;;;;;5024165;28;20033;-74
2022/06/22 00:37:21;;;;;;;15.80;9.77;;;12.70;99.90;;;;;;5013752;28;20091;-74
2022/06/22 00:39:55;;;;;;;12.27;9.38;;;12.70;99.90;;;;;;5016996;28;20033;-73
2022/06/22 00:42:29;;;;;;;11.98;9.57;;;12.70;99.90;;;;;;5013538;28;20485;-74
2022/06/22 00:45:09;;;;;;;14.82;9.65;;;12.70;99.90;;;;;;5028691;28;20040;-74
2022/06/22 00:47:43;;;;;;;12.77;10.00;;;12.60;99.90;;;;;;5032714;28;20893;-74
2022/06/22 00:50:19;;;;;;;13.00;10.20;;;12.60;99.90;;;;;;5009002;28;20045;-75
2022/06/22 00:53:01;;;;;;;13.10;9.70;;;12.50;99.90;;;;;;5024767;28;20399;-74
2022/06/22 00:55:42;;;;;;;12.10;9.80;;;12.50;99.90;;;;;;5036434;28;20025;-74
2022/06/22 00:58:07;;;;;;;14.82;9.75;;;12.50;99.90;;;;;;5031157;28;20079;-75
2022/06/22 01:00:37;;;;;;;15.93;9.85;;;12.50;99.90;;;;;;5026578;28;20116;-74
2022/06/22 01:03:34;;;;;;;15.93;10.30;;;12.40;99.90;;;;;;5031655;28;20091;-74
2022/06/22 01:06:17;;;;;;;15.38;10.10;;;12.30;99.90;;;;;;5020448;28;20033;-74
2022/06/22 01:09:15;;;;;;;15.50;10.13;;;12.20;99.90;;;;;;5009331;28;20040;-74
2022/06/22 01:12:22;;;;;;;12.75;10.27;;;12.10;99.90;;;;;;5007104;28;20520;-75
2022/06/22 01:15:21;;;;;;;11.13;7.90;;;12.00;99.90;;;;;;5020911;28;20033;-74
2022/06/22 01:18:20;;;;;;;13.23;8.60;;;12.00;99.90;;;;;;5023590;28;20490;-74
2022/06/22 01:21:01;;;;;;;12.13;9.48;;;12.10;99.90;;;;;;5029547;28;20056;-74
2022/06/22 01:23:38;;;;;;;14.88;10.02;;;12.20;99.90;;;;;;5035015;28;20033;-74
2022/06/22 01:26:04;;;;;;;16.15;10.73;;;12.20;99.90;;;;;;5031457;28;20026;-74
2022/06/22 01:28:30;;;;;;;14.77;10.70;;;12.20;99.90;;;;;;5016466;28;20037;-77
2022/06/22 01:31:03;;;;;;;17.33;11.50;;;12.20;99.90;;;;;;5019904;28;20068;-74
2022/06/22 01:33:39;;;;;;;14.50;10.85;;;12.10;99.90;;;;;;5027874;28;20735;-74
2022/06/22 01:36:20;;;;;;;16.15;11.45;;;12.00;99.90;;;;;;5018626;28;20047;-76
2022/06/22 01:38:46;;;;;;;18.27;12.35;;;11.90;99.90;;;;;;5022764;28;20045;-74
2022/06/22 01:41:35;;;;;;;15.20;10.68;;;11.80;99.90;;;;;;5026641;28;20826;-75
2022/06/22 01:44:16;;;;;;;16.00;9.98;;;11.80;99.90;;;;;;5021296;28;20072;-76
2022/06/22 01:46:50;;;;;;;17.73;10.95;;;11.80;99.90;;;;;;5012042;28;20431;-75
2022/06/22 01:49:24;;;;;;;15.80;11.23;;;11.70;99.90;;;;;;5023822;28;20029;-73
2022/06/22 01:51:59;;;;;;;15.00;10.68;;;11.60;99.90;;;;;;5009560;28;20026;-75
2022/06/22 01:54:43;;;;;;;15.90;12.15;;;11.50;99.90;;;;;;5020359;28;20052;-75
2022/06/22 01:57:21;;;;;;;17.75;12.38;;;11.50;99.90;;;;;;5023258;28;20088;-74
2022/06/22 01:59:59;;;;;;;17.63;12.85;;;11.50;99.90;;;;;;5013918;28;20456;-73
2022/06/22 02:02:46;;;;;;;15.45;10.23;;;11.50;99.90;;;;;;5018570;28;20041;-73
2022/06/22 02:05:14;;;;;;;12.75;9.65;;;11.60;99.90;;;;;;5022918;28;20112;-72
2022/06/22 02:07:46;;;;;;;11.48;8.77;;;11.60;99.90;;;;;;5003236;28;20033;-73
2022/06/22 02:10:24;;;;;;;12.68;9.65;;;11.50;99.90;;;;;;5032107;28;20029;-74
2022/06/22 02:13:18;;;;;;;12.73;9.65;;;11.50;99.90;;;;;;5024807;28;20064;-73
2022/06/22 02:15:56;;;;;;;13.50;9.63;;;11.40;99.90;;;;;;5001397;28;20111;-75
2022/06/22 02:18:30;;;;;;;14.80;11.15;;;11.40;99.90;;;;;;5027470;28;20046;-73
2022/06/22 02:20:59;;;;;;;16.52;11.95;;;11.30;99.90;;;;;;5026338;28;20030;-74
2022/06/22 02:23:30;;;;;;;18.30;12.10;;;11.30;99.90;;;;;;5018509;28;20033;-73
2022/06/22 02:26:05;;;;;;;14.73;11.07;;;11.40;99.90;;;;;;5002546;28;20569;-73
2022/06/22 02:28:31;;;;;;;17.90;11.80;;;11.30;99.90;;;;;;5025870;28;20033;-73
2022/06/22 02:30:59;;;;;;;18.23;13.02;;;11.20;99.90;;;;;;5027584;28;20079;-73
2022/06/22 02:33:26;;;;;;;17.67;13.10;;;11.10;99.90;;;;;;5026790;28;20053;-73
2022/06/22 02:35:52;;;;;;;17.88;12.60;;;11.10;99.90;;;;;;5016019;28;20591;-74
2022/06/22 02:38:18;;;;;;;16.95;12.73;;;11.10;99.90;;;;;;5031870;28;20745;-74
2022/06/22 02:46:42;;;;;;;15.43;12.50;;;11.20;99.90;;;;;;4949322;28;20068;-75
2022/06/22 02:49:17;;;;;;;16.48;12.35;;;11.10;99.90;;;;;;4931052;29;20047;-74
2022/06/22 02:51:46;;;;;;;16.17;11.35;;;11.10;99.90;;;;;;4948185;28;20381;-73
2022/06/22 02:54:46;;;;;;;16.67;12.32;;;11.00;99.90;;;;;;4947280;28;20035;-75
2022/06/22 02:57:29;;;;;;;16.60;11.35;;;11.10;99.90;;;;;;4931455;28;20059;-75
2022/06/22 02:59:56;;;;;;;18.52;11.10;;;11.10;99.90;;;;;;4932499;29;20060;-75
2022/06/22 03:02:24;;;;;;;16.77;11.90;;;11.00;99.90;;;;;;4922799;29;20040;-74
2022/06/22 03:04:52;;;;;;;18.45;12.82;;;10.80;99.90;;;;;;4927183;29;20086;-73
2022/06/22 03:07:18;;;;;;;18.60;13.48;;;10.80;99.90;;;;;;4927715;29;20035;-74
2022/06/22 03:09:45;;;;;;;18.65;12.95;;;10.80;99.90;;;;;;4931683;29;20122;-73
2022/06/22 03:12:13;;;;;;;16.33;11.88;;;10.80;99.90;;;;;;4930382;29;20035;-74
2022/06/22 03:14:52;;;;;;;20.00;13.50;;;11.00;99.90;;;;;;4974385;28;20097;-74
2022/06/22 03:17:22;;;;;;;20.02;14.82;;;10.90;99.90;;;;;;4990565;28;20514;-74
2022/06/22 03:20:07;;;;;;;18.67;12.68;;;10.90;99.90;;;;;;5014338;28;20080;-75
2022/06/22 03:22:50;;;;;;;18.90;13.70;;;11.00;99.90;;;;;;5012819;28;20030;-73
2022/06/22 03:25:18;;;;;;;18.70;13.63;;;11.10;99.90;;;;;;5008394;28;20068;-74
2022/06/22 03:27:52;;;;;;;18.75;13.95;;;11.10;99.90;;;;;;5008232;28;20038;-73
2022/06/22 03:30:25;;;;;;;22.05;14.38;;;11.10;99.90;;;;;;5013938;28;20419;-75
2022/06/22 03:32:58;;;;;;;22.05;14.60;;;11.10;99.90;;;;;;4996904;28;20026;-74
2022/06/22 03:35:53;;;;;;;20.50;14.32;;;11.20;99.90;;;;;;4999267;28;20247;-75
2022/06/22 03:38:41;;;;;;;19.92;13.75;;;11.10;99.90;;;;;;5008891;28;20049;-76
2022/06/22 03:41:13;;;;;;;20.70;13.73;;;11.10;99.90;;;;;;5009432;28;20044;-77
2022/06/22 03:43:51;;;;;;;21.00;14.38;;;11.00;99.90;;;;;;5010340;28;20026;-75
2022/06/22 03:46:27;;;;;;;22.30;14.07;;;11.00;99.90;;;;;;5007264;28;20695;-74
2022/06/22 03:49:03;;;;;;;18.90;14.13;;;10.90;99.90;;;;;;4989595;28;20061;-74
2022/06/22 03:51:33;;;;;;;19.95;14.95;;;10.90;99.90;;;;;;4994408;28;20057;-74
2022/06/22 03:54:07;;;;;;;18.77;14.07;;;10.90;99.90;;;;;;5012300;28;20030;-74
2022/06/22 03:56:38;;;;;;;21.48;14.68;;;10.80;99.90;;;;;;5001589;28;20088;-75
2022/06/22 03:59:05;;;;;;;21.25;13.80;;;10.70;99.90;;;;;;5007350;28;20069;-75
2022/06/22 04:01:32;;;;;;;22.27;15.10;;;10.60;99.90;;;;;;5006544;28;20403;-74
2022/06/22 04:03:58;;;;;;;22.90;14.73;;;10.60;99.90;;;;;;5010437;28;20053;-76
2022/06/22 04:06:32;;;;;;;21.67;15.32;;;10.60;99.90;;;;;;4988326;28;20034;-75
2022/06/22 04:09:00;;;;;;;22.48;15.57;;;10.60;99.90;;;;;;4999443;28;20833;-75
2022/06/22 04:11:34;;;;;;;23.05;15.77;;;10.60;99.90;;;;;;5019912;28;20087;-76
2022/06/22 04:14:21;;;;;;;22.20;15.32;;;10.70;99.90;;;;;;5007906;28;20404;-74
2022/06/22 04:16:53;;;;;;;21.55;15.82;;;10.80;99.90;;;;;;5006654;28;20034;-74
2022/06/22 04:19:31;;;;;;;18.02;13.55;;;10.90;99.90;;;;;;5008635;28;20056;-75
2022/06/22 04:22:03;;;;;;;19.33;13.32;;;10.90;99.90;;;;;;4995157;28;20033;-74
2022/06/22 04:24:53;;;;;;;20.50;15.43;;;10.90;99.90;;;;;;5000987;28;20030;-73
2022/06/22 04:27:38;;;;;;;21.67;14.93;;;10.90;99.90;;;;;;4983674;28;20172;-74
2022/06/22 04:30:19;;;;;;;23.48;15.75;;;10.90;99.90;;;;;;4987348;28;20048;-75
2022/06/22 04:32:54;;;;;;;18.35;13.13;;;11.00;99.90;;;;;;5008325;28;20072;-76
2022/06/22 04:35:43;;;;;;;24.45;16.75;;;10.90;99.90;;;;;;5003749;28;20029;-75
2022/06/22 04:38:08;;;;;;;23.08;16.67;;;11.00;99.90;;;;;;5006683;28;20041;-74
2022/06/22 04:41:00;;;;;;;20.95;17.05;;;11.00;99.90;;;;;;5006011;28;20034;-77
2022/06/22 04:43:27;;;;;;;23.00;17.17;;;11.00;99.90;;;;;;5014783;28;20064;-74
2022/06/22 04:45:54;;;;;;;25.23;16.75;;;11.10;99.90;;;;;;4991308;28;20038;-74
2022/06/22 04:48:25;;;;;;;23.58;16.77;;;11.20;99.90;;;;;;5001890;28;20061;-76
2022/06/22 04:50:58;;;;;;;25.50;15.65;;;11.20;99.90;;;;;;5000343;28;20033;-74
2022/06/22 04:53:37;;;;;;;20.95;15.70;;;11.20;99.90;;;;;;4993172;28;20033;-74
2022/06/22 04:56:07;;;;;;;19.52;14.02;;;11.30;99.90;;;;;;4989524;28;20052;-74
2022/06/22 04:58:43;;;;;;;17.20;13.02;;;11.20;99.90;;;;;;5009148;28;20038;-74
2022/06/22 05:01:17;;;;;;;19.48;13.82;;;11.30;99.90;;;;;;4991266;28;20580;-74
2022/06/22 05:03:43;;;;;;;16.52;12.38;;;11.30;99.90;;;;;;5002755;28;20034;-75
2022/06/22 05:06:20;;;;;;;17.98;13.05;;;11.40;99.90;;;;;;5004133;28;20565;-73
2022/06/22 05:08:54;;;;;;;17.58;13.70;;;11.40;99.90;;;;;;4994009;28;20141;-73
2022/06/22 05:11:26;;;;;;;20.48;13.43;;;11.50;99.90;;;;;;5006992;28;20044;-74
2022/06/22 05:13:55;;;;;;;20.95;13.48;;;11.60;99.90;;;;;;5008486;28;20475;-74
2022/06/22 05:16:25;;;;;;;16.02;12.05;;;11.60;99.90;;;;;;5005445;28;20033;-74
2022/06/22 05:18:51;;;;;;;;;;;11.60;99.90;;;;;;5005827;28;20172;-73
2022/06/22 05:21:35;;;;;;;19.20;13.05;;;11.70;99.90;;;;;;5008026;28;19924;-74
2022/06/22 05:24:21;;;;;;;17.83;13.30;;;11.70;99.90;;;;;;4997023;28;20078;-76
2022/06/22 05:26:49;;;;;;;19.70;13.07;;;11.70;99.90;;;;;;4981092;28;20088;-74
2022/06/22 05:29:24;;;;;;;15.57;12.38;;;11.80;99.90;;;;;;5005137;28;20046;-73
2022/06/22 05:31:55;;;;;;;18.10;12.80;;;11.80;99.90;;;;;;4983169;28;20041;-77
2022/06/22 05:34:29;;;;;;;17.98;13.02;;;11.80;99.90;;;;;;5005335;28;20037;-75
2022/06/22 05:37:01;;;;;;;16.90;12.02;;;11.90;99.90;;;;;;4999452;28;20142;-74
2022/06/22 05:39:27;;;;;;;17.08;12.18;;;12.00;99.90;;;;;;5005484;28;20037;-73
2022/06/22 05:41:53;;;;;;;17.92;12.82;;;12.10;99.90;;;;;;5000946;28;20034;-75
2022/06/22 05:44:22;;;;;;;20.73;13.18;;;12.20;99.90;;;;;;5003613;28;20609;-74
2022/06/22 05:46:54;;;;;;;17.52;11.35;;;12.20;99.90;;;;;;4995443;28;20026;-77
2022/06/22 05:49:23;;;;;;;16.38;12.48;;;12.20;99.90;;;;;;5009153;28;20489;-74
2022/06/22 05:52:08;;;;;;;;;;;12.30;99.90;;;;;;5012619;28;20029;-74
2022/06/22 05:54:43;;;;;;;17.00;11.10;;;12.40;99.90;;;;;;5009220;28;19971;-73
2022/06/22 05:57:30;;;;;;;18.73;13.50;;;12.50;99.90;;;;;;4991769;28;20128;-74
2022/06/22 06:00:13;;;;;;;16.05;11.65;;;12.60;99.90;;;;;;5008734;28;20045;-75
2022/06/22 06:02:48;;;;;;;19.98;12.23;;;12.60;99.90;;;;;;5006790;28;20033;-75
2022/06/22 06:05:29;;;;;;;14.27;11.82;;;12.70;99.90;;;;;;5018160;28;20041;-75
2022/06/22 06:08:01;;;;;;;18.13;11.35;;;12.80;99.90;;;;;;4993166;28;20037;-73
2022/06/22 06:10:34;;;;;;;16.10;12.60;;;12.90;99.90;;;;;;5006038;28;20040;-74
2022/06/22 06:13:08;;;;;;;15.52;10.82;;;13.00;99.90;;;;;;4997263;28;20168;-74
2022/06/22 06:15:38;;;;;;;15.23;11.98;;;13.10;99.90;;;;;;5003120;28;20031;-77
2022/06/22 06:18:06;;;;;;;18.50;12.85;;;13.20;99.90;;;;;;4995189;28;20052;-75
2022/06/22 06:20:45;;;;;;;19.33;13.10;;;13.30;99.90;;;;;;4998395;28;20160;-74
2022/06/22 06:23:17;;;;;;;15.60;11.70;;;13.50;99.90;;;;;;4985994;28;20456;-74
2022/06/22 06:29:02;;;;;;;16.75;11.77;;;13.70;99.90;;;;;;5014507;28;20359;-74
2022/06/22 06:31:41;;;;;;;16.60;10.50;;;13.80;99.90;;;;;;4963590;28;20062;-75
2022/06/22 06:34:18;;;;;;;16.35;11.63;;;13.90;99.90;;;;;;4987917;28;20116;-74
2022/06/22 06:36:58;;;;;;;16.98;11.98;;;14.00;99.90;;;;;;5016169;28;20038;-74
2022/06/22 06:39:28;;;;;;;15.10;11.45;;;14.10;99.90;;;;;;5017742;28;20022;-73
2022/06/22 06:42:04;;;;;;;17.38;12.07;;;14.20;99.90;;;;;;5006446;28;20065;-74
2022/06/22 06:44:41;;;;;;;14.05;10.52;;;14.30;99.90;;;;;;5003403;28;20042;-73
2022/06/22 06:47:15;;;;;;;15.70;11.05;;;14.50;99.90;;;;;;5006912;28;20026;-73
2022/06/22 06:49:49;;;;;;;16.30;11.18;;;14.60;99.90;;;;;;4997098;28;20029;-74
2022/06/22 06:52:33;;;;;;;18.27;10.52;;;14.70;99.90;;;;;;5019434;28;20162;-74
2022/06/22 06:55:12;;;;;;;16.35;10.88;;;14.90;99.90;;;;;;4999515;28;20117;-75
2022/06/22 06:58:00;;;;;;;13.50;9.63;;;15.10;99.90;;;;;;4996480;28;20138;-75
2022/06/22 07:00:27;;;;;;;14.18;10.13;;;15.20;99.90;;;;;;4995315;28;20054;-74
2022/06/22 07:02:53;;;;;;;13.07;10.57;;;15.40;99.90;;;;;;4998544;28;20034;-77
2022/06/22 07:05:21;;;;;;;12.57;9.15;;;15.60;99.90;;;;;;5001204;28;20030;-74
2022/06/22 07:08:10;;;;;;;12.88;8.90;;;15.90;99.90;;;;;;4971885;28;20042;-75
2022/06/22 07:10:41;;;;;;;13.27;7.55;;;16.00;99.90;;;;;;5009379;28;20570;-75
2022/06/22 07:13:17;;;;;;;9.75;6.63;;;16.20;99.90;;;;;;4989708;28;20030;-74
2022/06/22 07:15:49;;;;;;;12.40;7.57;;;16.50;99.90;;;;;;5004079;28;20044;-75
2022/06/22 07:18:42;;;;;;;12.18;6.47;;;16.70;99.90;;;;;;4984223;28;20038;-76
2022/06/22 07:21:36;;;;;;;8.88;5.45;;;16.90;99.90;;;;;;5003638;28;20068;-74
2022/06/22 07:24:14;;;;;;;9.98;6.00;;;17.20;99.90;;;;;;5005887;28;20426;-75
2022/06/22 07:26:54;;;;;;;9.30;5.50;;;17.40;99.90;;;;;;4991814;28;20551;-74
2022/06/22 07:29:37;;;;;;;;;;;17.60;99.90;;;;;;5006114;28;20034;-73
2022/06/22 07:32:15;;;;;;;9.82;4.88;;;17.80;99.90;;;;;;5014732;28;19960;-73
2022/06/22 07:35:00;;;;;;;9.15;5.00;;;18.00;99.90;;;;;;5005003;28;20026;-73
2022/06/22 07:37:33;;;;;;;9.35;4.95;;;18.20;99.90;;;;;;4993804;28;20042;-77
2022/06/22 07:40:14;;;;;;;9.82;4.50;;;18.30;99.60;;;;;;5005969;28;20108;-73
2022/06/22 07:42:40;;;;;;;9.00;4.18;;;18.30;99.30;;;;;;4986636;28;20073;-74
2022/06/22 07:45:12;;;;;;;7.82;4.28;;;18.40;98.50;;;;;;5007818;28;20116;-75
2022/06/22 07:47:43;;;;;;;7.13;3.83;;;18.50;98.20;;;;;;5012544;28;20060;-74
2022/06/22 07:50:24;;;;;;;8.80;4.20;;;18.60;97.90;;;;;;4998316;28;20144;-74
2022/06/22 07:53:22;;;;;;;8.05;4.10;;;18.80;97.00;;;;;;4985435;28;20041;-73
2022/06/22 07:55:57;;;;;;;8.00;4.35;;;18.80;96.60;;;;;;4968507;28;20050;-73
2022/06/22 07:58:32;;;;;;;8.30;4.50;;;18.90;96.00;;;;;;4987619;28;20034;-77
2022/06/22 08:01:04;;;;;;;10.68;3.78;;;19.00;95.30;;;;;;5003357;28;20476;-74
2022/06/22 08:03:42;;;;;;;8.13;3.38;;;19.10;95.20;;;;;;4998462;28;20493;-74
2022/06/22 08:06:37;;;;;;;6.57;3.70;;;19.20;94.70;;;;;;5005393;28;20034;-75
2022/06/22 08:09:52;;;;;;;6.90;3.00;;;19.30;93.50;;;;;;4987716;28;20404;-79
2022/06/22 08:12:45;;;;;;;5.72;2.70;;;19.50;92.90;;;;;;4985586;28;20042;-73
2022/06/22 08:15:16;;;;;;;6.85;2.90;;;19.50;93.10;;;;;;5004167;28;20042;-73
2022/06/22 08:17:50;;;;;;;5.30;2.63;;;19.70;92.00;;;;;;5003121;28;20403;-70
2022/06/22 08:20:29;;;;;;;5.88;2.78;;;19.80;92.10;;;;;;5005508;28;20030;-70
2022/06/22 08:22:57;;;;;;;7.35;2.97;;;19.90;91.20;;;;;;4986414;28;20121;-69
2022/06/22 08:25:24;;;;;;;5.93;2.60;;;20.00;91.10;;;;;;5005386;28;20026;-70
2022/06/22 08:27:51;;;;;;;5.43;2.92;;;20.30;90.10;;;;;;5008537;28;20037;-71
2022/06/22 08:30:17;;;;;;;3.88;1.98;;;20.40;86.10;;;;;;4995785;28;20474;-70
2022/06/22 08:33:10;;;;;;;6.40;2.15;;;20.50;85.50;;;;;;5001700;28;20034;-72
2022/06/22 08:35:45;;;;;;;5.15;2.15;;;20.70;83.40;;;;;;4992027;28;20393;-72
2022/06/22 08:38:21;;;;;;;7.13;2.53;;;20.80;81.10;;;;;;5004538;28;20072;-76
2022/06/22 08:41:18;;;;;;;9.85;3.53;;;21.00;76.10;;;;;;4996422;28;20030;-70
2022/06/22 08:43:47;;;;;;;7.43;3.35;;;21.10;73.40;;;;;;4981703;28;20129;-70
2022/06/22 08:46:26;;;;;;;6.53;2.30;;;21.10;72.50;;;;;;5004661;28;20071;-69
2022/06/22 08:49:16;;;;;;;5.85;2.40;;;21.20;78.80;;;;;;5016805;28;20026;-69
2022/06/22 08:51:41;;;;;;;;;;;21.30;73.50;;;;;;4997032;28;20496;-70
2022/06/22 08:54:36;;;;;;;6.80;2.40;;;21.40;69.40;;;;;;5009038;28;20007;-70
2022/06/22 08:57:22;;;;;;;6.90;2.78;;;21.50;65.80;;;;;;5013349;28;20438;-71
2022/06/22 09:00:33;;;;;;;5.70;2.10;;;21.50;62.80;;;;;;4988869;28;20077;-69
2022/06/22 09:03:17;;;;;;;5.65;2.30;;;21.50;59.60;;;;;;5023434;28;20389;-69
2022/06/22 09:05:46;;;;;;;3.88;1.85;;;21.60;61.10;;;;;;5022647;28;20038;-70
2022/06/22 09:08:43;;;;;;;5.85;2.20;;;21.70;58.90;;;;;;5018379;28;20029;-70
2022/06/22 09:11:51;;;;;;;4.22;1.65;;;21.70;62.30;;;;;;5016080;28;20116;-71
2022/06/22 09:14:28;;;;;;;4.93;2.05;;;21.90;61.60;;;;;;4982916;28;20064;-71
2022/06/22 09:17:40;;;;;;;5.82;2.00;;;21.90;61.90;;;;;;5014005;28;20042;-72
2022/06/22 09:20:33;;;;;;;5.13;2.15;;;22.00;63.40;;;;;;5025521;28;20029;-70
2022/06/22 09:23:05;;;;;;;4.28;1.70;;;22.00;58.30;;;;;;5004341;28;20045;-72
2022/06/22 09:25:49;;;;;;;4.80;1.70;;;22.10;62.40;;;;;;5006751;28;20033;-71
2022/06/22 09:28:31;;;;;;;4.82;1.40;;;22.10;60.90;;;;;;5001401;28;20025;-70
2022/06/22 09:31:38;;;;;;;4.60;1.48;;;22.10;62.10;;;;;;5024582;28;20522;-72
2022/06/22 09:34:10;;;;;;;3.47;1.65;;;22.20;60.90;;;;;;5025321;28;20033;-71
2022/06/22 09:37:08;;;;;;;5.85;1.83;;;22.30;61.20;;;;;;5036030;28;20025;-70
2022/06/22 09:40:12;;;;;;;5.00;1.75;;;22.20;58.80;;;;;;5002366;28;20148;-72
2022/06/22 09:43:21;;;;;;;3.85;1.60;;;22.30;61.10;;;;;;5025784;28;20044;-71
2022/06/22 09:46:21;;;;;;;5.80;1.75;;;22.50;60.40;;;;;;4946900;28;20035;-71
2022/06/22 09:49:20;;;;;;;3.75;1.50;;;22.60;62.20;;;;;;4958253;28;20057;-69
2022/06/22 09:51:48;;;;;;;6.90;1.30;;;22.70;57.00;;;;;;4962431;28;20109;-70
2022/06/22 09:57:57;;;;;;;3.85;1.25;;;22.80;54.90;;;;;;4931941;28;20058;-72
2022/06/22 10:00:49;;;;;;;5.40;1.80;;;23.00;56.20;;;;;;4942730;28;20046;-70
2022/06/22 10:03:45;;;;;;;6.55;1.70;;;23.20;54.70;;;;;;4946306;29;20068;-72
2022/06/22 10:06:44;;;;;;;4.55;1.40;;;23.20;53.20;;;;;;4950431;28;20132;-70
2022/06/22 10:09:32;;;;;;;5.22;1.40;;;23.20;53.30;;;;;;4941304;28;20934;-72
2022/06/22 10:12:33;;;;;;;3.47;1.33;;;23.30;52.40;;;;;;4947298;28;20809;-70
2022/06/22 10:15:21;;;;;;;3.55;1.30;;;23.30;51.60;;;;;;4955123;28;20492;-72
2022/06/22 10:18:09;;;;;;;3.60;1.40;;;23.40;54.50;;;;;;4963682;28;20054;-70
2022/06/22 10:20:41;;;;;;;3.30;1.33;;;23.60;51.50;;;;;;4944653;28;20072;-72
2022/06/22 10:23:09;;;;;;;4.60;1.40;;;23.70;49.20;;;;;;4961678;28;20034;-72
2022/06/22 10:26:13;;;;;;;4.28;1.40;;;23.90;50.00;;;;;;4942044;28;20072;-71
2022/06/22 10:28:47;;;;;;;3.70;1.23;;;24.00;50.30;;;;;;4952353;28;20078;-72
2022/06/22 10:31:24;;;;;;;3.25;1.15;;;24.20;49.70;;;;;;4974920;28;20042;-72
2022/06/22 10:34:09;;;;;;;3.00;1.10;;;24.30;47.00;;;;;;5000385;28;20131;-72
2022/06/22 10:36:55;;;;;;;3.13;1.35;;;24.20;46.00;;;;;;5028367;28;20044;-72
2022/06/22 10:39:30;;;;;;;3.25;1.30;;;24.10;47.00;;;;;;5027761;28;20025;-71
2022/06/22 10:45:14;;;;;;;3.63;1.17;;;24.10;46.50;;;;;;5024954;28;20131;-70
2022/06/22 10:47:57;;;;;;;4.78;1.30;;;24.10;45.50;;;;;;5017534;28;20044;-73
2022/06/22 10:50:45;;;;;;;3.20;1.10;;;24.10;44.70;;;;;;5025955;28;20025;-71
2022/06/22 10:53:29;;;;;;;3.45;1.20;;;24.20;45.20;;;;;;5024091;28;20476;-71
2022/06/22 10:56:03;;;;;;;3.80;1.10;;;24.40;45.90;;;;;;5024746;28;20034;-73
2022/06/22 10:58:44;;;;;;;2.97;1.10;;;24.50;44.50;;;;;;5025153;28;20475;-70
2022/06/22 11:01:33;;;;;;;3.38;1.30;;;24.70;44.50;;;;;;5021441;28;20080;-70
2022/06/22 11:04:36;;;;;;;2.67;1.10;;;24.70;43.70;;;;;;5022768;28;20112;-69
2022/06/22 11:07:20;;;;;;;3.53;1.20;;;24.70;42.60;;;;;;5023281;28;20037;-70
2022/06/22 11:10:09;;;;;;;4.13;1.00;;;24.60;41.10;;;;;;5024043;28;20044;-70
2022/06/22 11:12:56;;;;;;;2.80;0.93;;;24.70;43.30;;;;;;4995777;28;20041;-70
2022/06/22 11:15:45;;;;;;;3.63;1.25;;;24.70;44.80;;;;;;5025158;28;20145;-69
2022/06/22 11:18:17;;;;;;;2.88;1.30;;;25.10;42.80;;;;;;5023660;28;20495;-71
2022/06/22 11:20:45;;;;;;;2.88;0.90;;;26.90;41.40;;;;;;5005671;28;20021;-71
2022/06/22 11:23:17;;;;;;;5.25;1.10;;;27.70;39.60;;;;;;5004530;28;20029;-72
2022/06/22 11:32:50;;;;;;;3.33;1.20;;;32.20;31.50;;;;;;5019259;28;20049;-72
2022/06/22 11:35:48;;;;;;;3.50;1.00;;;32.70;31.20;;;;;;5028046;28;20144;-75
2022/06/22 11:38:35;;;;;;;4.22;1.08;;;31.70;31.50;;;;;;5026542;28;20041;-71
2022/06/22 11:41:38;;;;;;;3.63;1.27;;;30.10;31.40;;;;;;5021651;28;20029;-70
2022/06/22 11:44:36;;;;;;;2.42;1.10;;;28.70;33.50;;;;;;5024886;28;20036;-70
2022/06/22 11:47:26;;;;;;;4.03;1.20;;;27.70;35.00;;;;;;4993094;28;20560;-69
2022/06/22 11:50:06;;;;;;;3.13;1.17;;;26.80;35.70;;;;;;5009603;28;20037;-71
2022/06/22 11:52:47;;;;;;;3.28;1.05;;;26.30;35.20;;;;;;5033074;28;20107;-71
2022/06/22 11:55:26;;;;;;;4.65;1.20;;;25.90;36.30;;;;;;5028330;28;20629;-70
2022/06/22 11:58:00;;;;;;;3.10;1.10;;;25.70;36.70;;;;;;5002101;28;20033;-71
2022/06/22 12:00:41;;;;;;;3.00;1.13;;;25.50;36.90;;;;;;5029476;28;20531;-71
2022/06/22 12:03:25;;;;;;;2.72;1.35;;;25.40;37.70;;;;;;5008835;28;20411;-69
2022/06/22 12:06:02;;;;;;;4.10;1.10;;;25.40;38.80;;;;;;5024955;28;20638;-70
2022/06/22 12:08:55;;;;;;;4.18;1.13;;;25.30;38.30;;;;;;5022087;28;21332;-71
2022/06/22 12:11:54;;;;;;;3.58;1.23;;;25.40;38.40;;;;;;5027136;28;20368;-71
2022/06/22 12:17:21;;;;;;;2.80;1.08;;;25.40;38.40;;;;;;5028505;28;20274;-70
2022/06/22 12:19:50;;;;;;;4.15;1.25;;;25.40;38.30;;;;;;5023756;28;20404;-72
2022/06/22 12:22:17;;;;;;;3.90;1.10;;;25.40;38.20;;;;;;5025572;28;20480;-71
2022/06/22 12:24:58;;;;;;;3.45;1.27;;;25.40;39.20;;;;;;5020746;28;20021;-71
2022/06/22 12:27:28;;;;;;;4.38;1.20;;;25.50;38.40;;;;;;5024676;28;20124;-71
2022/06/22 12:29:54;;;;;;;3.53;1.20;;;25.50;38.90;;;;;;5006435;28;20041;-73
2022/06/22 12:32:34;;;;;;;3.15;1.30;;;25.50;40.10;;;;;;5024173;28;20034;-75
2022/06/22 12:35:16;;;;;;;3.00;1.00;;;25.80;39.90;;;;;;5023946;28;20040;-73
2022/06/22 12:38:00;;;;;;;3.15;1.40;;;25.70;40.60;;;;;;5022999;28;20380;-73
2022/06/22 12:40:49;;;;;;;3.50;1.30;;;25.60;40.60;;;;;;4996601;28;20044;-72
2022/06/22 12:43:33;;;;;;;;;;;25.60;41.20;;;;;;5006659;28;20120;-70
2022/06/22 12:46:09;;;;;;;4.63;1.13;;;25.60;41.40;;;;;;5024791;28;19909;-72
2022/06/22 12:48:56;;;;;;;2.50;1.08;;;25.80;40.40;;;;;;5004866;28;20103;-70
2022/06/22 12:51:37;;;;;;;4.15;1.30;;;25.80;40.90;;;;;;5022257;28;20044;-69
2022/06/22 12:54:11;;;;;;;3.97;1.27;;;25.90;40.40;;;;;;5022126;28;20042;-72
2022/06/22 12:56:46;;;;;;;3.88;1.30;;;26.10;40.00;;;;;;5025260;28;20064;-69
2022/06/22 12:59:36;;;;;;;4.43;1.20;;;26.10;39.10;;;;;;5024385;28;20053;-69
2022/06/22 13:02:10;;;;;;;3.78;1.35;;;25.90;39.40;;;;;;5010087;28;20057;-68
2022/06/22 13:04:37;;;;;;;5.53;1.55;;;25.80;40.10;;;;;;5026528;28;20741;-71
2022/06/22 13:07:16;;;;;;;3.58;1.00;;;25.70;41.20;;;;;;5009528;28;20056;-71
2022/06/22 13:09:43;;;;;;;;;;;25.60;40.90;;;;;;5010433;28;20025;-69
2022/06/22 13:12:33;;;;;;;3.38;1.10;;;25.60;40.70;;;;;;5028259;28;19915;-71
2022/06/22 13:15:23;;;;;;;3.72;1.20;;;25.50;42.20;;;;;;5008193;28;20492;-69
2022/06/22 13:18:02;;;;;;;3.22;1.10;;;25.60;40.80;;;;;;5025984;28;20033;-70
2022/06/22 13:20:42;;;;;;;2.88;1.13;;;25.60;40.00;;;;;;5019505;28;20096;-70
2022/06/22 13:23:32;;;;;;;3.10;1.15;;;25.60;41.20;;;;;;5022409;28;20034;-69
2022/06/22 13:26:06;;;;;;;5.30;1.38;;;25.60;40.80;;;;;;5006195;28;20073;-71
2022/06/22 13:28:48;;;;;;;4.18;1.33;;;25.60;40.30;;;;;;5024011;28;20511;-70
2022/06/22 13:31:26;;;;;;;3.67;1.00;;;25.60;40.20;;;;;;5000198;28;20068;-73
2022/06/22 13:33:57;;;;;;;2.40;1.08;;;25.70;40.70;;;;;;5027731;28;20040;-71
2022/06/22 13:36:42;;;;;;;3.10;1.10;;;25.80;41.50;;;;;;5010272;28;20827;-70
2022/06/22 13:39:19;;;;;;;5.80;1.42;;;25.90;40.70;;;;;;5027997;28;20041;-71
2022/06/22 13:42:19;;;;;;;2.88;1.20;;;25.90;40.10;;;;;;5028124;28;20033;-69
2022/06/22 13:45:15;;;;;;;3.30;1.10;;;25.80;40.60;;;;;;5027788;28;20530;-70
2022/06/22 13:48:18;;;;;;;4.10;1.40;;;25.70;41.30;;;;;;5027904;28;20068;-68
2022/06/22 13:53:42;;;;;;;2.80;1.33;;;25.70;40.90;;;;;;5028010;28;20483;-69
2022/06/22 13:56:42;;;;;;;4.03;1.40;;;25.80;41.30;;;;;;5010152;28;20075;-72
2022/06/22 13:59:43;;;;;;;3.95;1.20;;;25.80;41.20;;;;;;5027587;28;20395;-70
2022/06/22 14:02:14;;;;;;;4.90;1.20;;;25.80;41.40;;;;;;4927793;29;20047;-70
2022/06/22 14:05:03;;;;;;;4.53;1.10;;;25.90;40.60;;;;;;4930580;29;20040;-71
2022/06/22 14:07:34;;;;;;;2.25;1.05;;;25.90;39.70;;;;;;4931473;29;20533;-70